createdAt,value
2022-10-18T00:00:49.860Z,99565.69
2022-10-18T00:02:51.441Z,99564.84
2022-10-18T00:04:53.148Z,99567.03
2022-10-18T00:06:54.809Z,99567.59
2022-10-18T00:08:56.381Z,99569.78
2022-10-18T00:11:00.674Z,99565.66
2022-10-18T00:13:02.275Z,99569.53
2022-10-18T00:15:05.882Z,99578.88
2022-10-18T00:17:09.689Z,99571.41
2022-10-18T00:19:11.429Z,99562.59
2022-10-18T00:21:18.139Z,99576.38
2022-10-18T00:23:19.663Z,99575.00
2022-10-18T00:25:21.059Z,99579.13
2022-10-18T00:27:22.933Z,99568.63
2022-10-18T00:29:24.610Z,99575.78
2022-10-18T00:31:34.958Z,99577.44
2022-10-18T00:33:36.688Z,99573.28
2022-10-18T00:35:38.209Z,99571.88
2022-10-18T00:37:39.918Z,99567.47
2022-10-18T00:39:41.905Z,99575.19
2022-10-18T00:41:44.350Z,99568.81
2022-10-18T00:44:13.413Z,99575.16
2022-10-18T00:46:15.053Z,99574.59
2022-10-18T00:48:18.680Z,99581.19
2022-10-18T00:50:25.204Z,99575.13
2022-10-18T00:52:43.368Z,99570.97
2022-10-18T00:54:47.187Z,99578.41
2022-10-18T00:56:49.356Z,99577.84
2022-10-18T00:58:51.725Z,99571.50
2022-10-18T01:00:53.334Z,99568.47
2022-10-18T01:02:55.818Z,99567.09
2022-10-18T01:04:57.608Z,99573.44
2022-10-18T01:07:33.137Z,99565.69
2022-10-18T01:09:42.078Z,99568.97
2022-10-18T01:12:05.734Z,99569.81
2022-10-18T01:14:39.756Z,99574.19
2022-10-18T01:17:19.234Z,99567.28
2022-10-18T01:19:42.454Z,99568.91
2022-10-18T01:21:55.434Z,99561.75
2022-10-18T01:24:08.976Z,99567.53
2022-10-18T01:26:29.723Z,99564.47
2022-10-18T01:28:58.954Z,99565.31
2022-10-18T01:31:07.010Z,99562.28
2022-10-18T01:33:38.090Z,99558.69
2022-10-18T01:35:47.355Z,99559.47
2022-10-18T01:37:51.896Z,99557.00
2022-10-18T01:39:57.108Z,99560.28
2022-10-18T01:42:01.398Z,99550.63
2022-10-18T01:44:06.659Z,99556.66
2022-10-18T01:46:10.339Z,99556.91
2022-10-18T01:48:14.136Z,99552.50
2022-10-18T01:50:27.322Z,99549.19
2022-10-18T01:52:32.138Z,99555.78
2022-10-18T01:54:40.751Z,99551.66
2022-10-18T01:56:46.449Z,99548.31
2022-10-18T01:59:09.525Z,99540.34
2022-10-18T02:01:28.331Z,99541.41
2022-10-18T02:03:30.046Z,99538.38
2022-10-18T02:05:58.260Z,99536.16
2022-10-18T02:08:23.303Z,99534.47
2022-10-18T02:10:35.782Z,99539.41
2022-10-18T02:12:48.880Z,99534.19
2022-10-18T02:14:51.804Z,99532.81
2022-10-18T02:17:00.401Z,99538.31
2022-10-18T02:21:34.732Z,99533.09
2022-10-18T02:23:38.578Z,99534.19
2022-10-18T02:25:40.363Z,99541.63
2022-10-18T02:27:42.164Z,99537.78
2022-10-18T02:29:44.479Z,99536.44
2022-10-18T02:31:49.581Z,99541.63
2022-10-18T02:34:06.507Z,99549.31
2022-10-18T02:36:18.192Z,99541.56
2022-10-18T02:38:27.845Z,99538.81
2022-10-18T02:40:30.161Z,99537.72
2022-10-18T02:42:36.345Z,99543.16
2022-10-18T02:44:42.197Z,99537.91
2022-10-18T02:46:44.440Z,99549.22
2022-10-18T02:48:46.006Z,99545.09
2022-10-18T02:50:47.473Z,99548.06
2022-10-18T02:52:49.191Z,99550.31
2022-10-18T02:54:50.921Z,99549.78
2022-10-18T02:56:54.701Z,99544.56
2022-10-18T02:58:56.453Z,99541.78
2022-10-18T03:00:57.973Z,99547.56
2022-10-18T03:02:59.753Z,99539.31
2022-10-18T03:05:03.744Z,99532.69
2022-10-18T03:07:05.428Z,99538.72
2022-10-18T03:09:09.704Z,99538.72
2022-10-18T03:11:11.229Z,99532.38
2022-10-18T03:13:12.996Z,99531.53
2022-10-18T03:15:14.793Z,99522.19
2022-10-18T03:17:16.894Z,99531.81
2022-10-18T03:19:20.837Z,99526.31
2022-10-18T03:21:22.333Z,99523.25
2022-10-18T03:23:23.911Z,99525.44
2022-10-18T03:25:25.399Z,99519.69
2022-10-18T03:27:27.042Z,99530.41
2022-10-18T03:29:28.664Z,99530.97
2022-10-18T03:33:34.651Z,99532.66
2022-10-18T03:35:36.187Z,99533.47
2022-10-18T03:37:37.765Z,99529.91
2022-10-18T03:39:39.358Z,99527.16
2022-10-18T03:41:41.082Z,99527.66
2022-10-18T03:43:42.817Z,99525.44
2022-10-18T03:45:44.425Z,99521.59
2022-10-18T03:47:54.883Z,99524.88
2022-10-18T03:49:57.340Z,99520.22
2022-10-18T03:52:00.862Z,99534.25
2022-10-18T03:54:05.009Z,99522.69
2022-10-18T03:56:06.703Z,99522.13
2022-10-18T03:58:08.575Z,99519.38
2022-10-18T04:00:10.717Z,99519.94
2022-10-18T04:02:15.916Z,99522.44
2022-10-18T04:04:20.395Z,99521.31
2022-10-18T04:06:22.025Z,99522.69
2022-10-18T04:08:23.626Z,99519.94
2022-10-18T04:10:27.593Z,99516.66
2022-10-18T04:12:31.329Z,99517.75
2022-10-18T04:14:35.520Z,99520.50
2022-10-18T04:16:37.257Z,99521.09
2022-10-18T04:18:38.946Z,99522.72
2022-10-18T04:20:40.464Z,99526.03
2022-10-18T04:22:42.102Z,99522.75
2022-10-18T04:24:46.563Z,99525.50
2022-10-18T04:26:48.046Z,99514.81
2022-10-18T04:28:49.722Z,99518.09
2022-10-18T04:30:52.497Z,99517.00
2022-10-18T04:32:54.258Z,99516.75
2022-10-18T04:34:55.973Z,99523.38
2022-10-18T04:36:57.796Z,99514.03
2022-10-18T04:38:59.479Z,99516.22
2022-10-18T04:41:01.117Z,99514.31
2022-10-18T04:43:03.052Z,99514.59
2022-10-18T04:45:05.006Z,99515.16
2022-10-18T04:47:06.667Z,99507.47
2022-10-18T04:49:08.297Z,99503.63
2022-10-18T04:51:09.719Z,99512.44
2022-10-18T04:53:11.294Z,99503.63
2022-10-18T04:55:12.817Z,99496.19
2022-10-18T04:57:14.516Z,99498.44
2022-10-18T04:59:16.060Z,99505.03
2022-10-18T05:01:18.952Z,99501.22
2022-10-18T05:03:20.707Z,99501.50
2022-10-18T05:05:23.196Z,99502.31
2022-10-18T05:07:26.588Z,99493.00
2022-10-18T05:09:28.474Z,99501.28
2022-10-18T05:11:30.281Z,99496.03
2022-10-18T05:13:31.957Z,99493.88
2022-10-18T05:15:33.543Z,99498.03
2022-10-18T05:17:35.634Z,99489.53
2022-10-18T05:19:37.528Z,99493.66
2022-10-18T05:21:39.565Z,99489.81
2022-10-18T05:23:41.332Z,99492.31
2022-10-18T05:25:44.101Z,99495.09
2022-10-18T05:27:45.982Z,99483.00
2022-10-18T05:29:50.718Z,99482.69
2022-10-18T05:31:53.889Z,99489.31
2022-10-18T05:33:58.968Z,99488.22
2022-10-18T05:36:00.861Z,99487.44
2022-10-18T05:38:10.662Z,99493.22
2022-10-18T05:40:12.403Z,99492.09
2022-10-18T05:42:14.100Z,99490.75
2022-10-18T05:44:15.849Z,99487.19
2022-10-18T05:46:17.481Z,99484.16
2022-10-18T05:48:19.069Z,99483.91
2022-10-18T05:50:20.735Z,99491.88
2022-10-18T05:52:22.317Z,99483.66
2022-10-18T05:54:24.006Z,99489.47
2022-10-18T05:56:28.607Z,99490.84
2022-10-18T05:58:31.418Z,99493.63
2022-10-18T06:00:32.986Z,99495.78
2022-10-18T06:02:34.581Z,99488.13
2022-10-18T06:04:36.402Z,99499.94
2022-10-18T06:06:39.105Z,99504.06
2022-10-18T06:08:42.212Z,99499.41
2022-10-18T06:10:43.901Z,99498.03
2022-10-18T06:12:45.523Z,99496.97
2022-10-18T06:14:47.644Z,99492.00
2022-10-18T06:16:50.509Z,99494.22
2022-10-18T06:18:54.749Z,99492.00
2022-10-18T06:20:57.922Z,99485.41
2022-10-18T06:22:59.704Z,99490.66
2022-10-18T06:25:01.205Z,99486.53
2022-10-18T06:27:08.859Z,99494.25
2022-10-18T06:29:14.017Z,99498.38
2022-10-18T06:31:16.018Z,99496.47
2022-10-18T06:33:17.592Z,99498.66
2022-10-18T06:35:19.183Z,99507.50
2022-10-18T06:37:21.712Z,99497.03
2022-10-18T06:39:23.858Z,99497.59
2022-10-18T06:41:27.304Z,99506.41
2022-10-18T06:43:29.148Z,99502.56
2022-10-18T06:45:31.990Z,99498.69
2022-10-18T06:47:33.681Z,99509.16
2022-10-18T06:49:35.183Z,99511.66
2022-10-18T06:51:37.256Z,99509.72
2022-10-18T06:53:44.025Z,99505.31
2022-10-18T06:55:50.540Z,99520.25
2022-10-18T06:57:53.380Z,99509.22
2022-10-18T06:59:55.006Z,99517.50
2022-10-18T07:01:56.749Z,99512.53
2022-10-18T07:03:58.412Z,99506.75
2022-10-18T07:06:01.676Z,99512.53
2022-10-18T07:08:03.986Z,99515.88
2022-10-18T07:10:06.761Z,99516.69
2022-10-18T07:12:08.580Z,99518.63
2022-10-18T07:14:16.585Z,99525.53
2022-10-18T07:16:19.279Z,99520.28
2022-10-18T07:18:22.603Z,99527.47
2022-10-18T07:20:24.542Z,99521.13
2022-10-18T07:22:30.159Z,99521.13
2022-10-18T07:24:42.408Z,99523.34
2022-10-18T07:26:44.022Z,99522.78
2022-10-18T07:28:48.552Z,99520.88
2022-10-18T07:30:50.336Z,99519.19
2022-10-18T07:32:52.253Z,99518.34
2022-10-18T07:34:53.897Z,99515.88
2022-10-18T07:36:58.420Z,99518.34
2022-10-18T07:39:00.122Z,99513.09
2022-10-18T07:41:06.594Z,99513.13
2022-10-18T07:43:11.997Z,99513.94
2022-10-18T07:45:16.248Z,99523.59
2022-10-18T07:47:18.215Z,99522.19
2022-10-18T07:49:19.871Z,99530.16
2022-10-18T07:51:28.127Z,99529.84
2022-10-18T07:53:30.248Z,99531.22
2022-10-18T07:55:34.187Z,99526.25
2022-10-18T07:57:38.796Z,99533.91
2022-10-18T07:59:40.365Z,99531.41
2022-10-18T08:01:41.990Z,99529.69
2022-10-18T08:03:44.089Z,99527.19
2022-10-18T08:05:52.718Z,99524.69
2022-10-18T08:07:55.270Z,99527.66
2022-10-18T08:09:56.794Z,99534.25
2022-10-18T08:11:58.414Z,99529.22
2022-10-18T08:14:00.081Z,99536.94
2022-10-18T08:16:04.526Z,99538.81
2022-10-18T08:18:06.209Z,99536.25
2022-10-18T08:20:12.174Z,99534.53
2022-10-18T08:22:23.972Z,99540.81
2022-10-18T08:24:25.535Z,99537.44
2022-10-18T08:26:27.005Z,99532.41
2022-10-18T08:28:28.849Z,99533.16
2022-10-18T08:30:30.453Z,99540.00
2022-10-18T08:32:32.340Z,99535.78
2022-10-18T08:34:35.345Z,99537.34
2022-10-18T08:36:38.378Z,99526.78
2022-10-18T08:38:41.977Z,99537.19
2022-10-18T08:40:44.414Z,99527.19
2022-10-18T08:43:04.586Z,99534.03
2022-10-18T08:45:17.724Z,99530.06
2022-10-18T08:47:39.000Z,99524.78
2022-10-18T08:49:48.223Z,99524.72
2022-10-18T08:51:52.120Z,99527.44
2022-10-18T08:54:10.706Z,99514.63
2022-10-18T08:56:17.490Z,99511.00
2022-10-18T08:58:24.721Z,99507.03
2022-10-18T09:00:34.548Z,99511.41
2022-10-18T09:02:44.319Z,99513.50
2022-10-18T09:04:56.766Z,99519.50
2022-10-18T09:07:14.339Z,99514.41
2022-10-18T09:09:34.286Z,99518.16
2022-10-18T09:11:52.216Z,99519.97
2022-10-18T09:13:59.505Z,99515.97
2022-10-18T09:16:03.819Z,99514.78
2022-10-18T09:18:12.001Z,99516.34
2022-10-18T09:20:48.120Z,99516.00
2022-10-18T09:22:49.727Z,99519.75
2022-10-18T09:24:57.387Z,99529.34
2022-10-18T09:27:15.771Z,99528.66
2022-10-18T09:29:41.560Z,99533.53
2022-10-18T09:32:11.128Z,99528.91
2022-10-18T09:34:19.016Z,99531.00
2022-10-18T09:36:26.052Z,99529.47
2022-10-18T09:38:49.449Z,99534.66
2022-10-18T09:41:16.069Z,99533.13
2022-10-18T09:43:23.554Z,99531.63
2022-10-18T09:45:32.707Z,99540.38
2022-10-18T09:48:03.079Z,99538.63
2022-10-18T09:50:41.666Z,99540.19
2022-10-18T09:52:53.114Z,99548.94
2022-10-18T09:55:01.244Z,99544.22
2022-10-18T09:57:02.718Z,99543.59
2022-10-18T09:59:04.501Z,99546.91
2022-10-18T10:01:06.650Z,99548.22
2022-10-18T10:03:13.069Z,99539.56
2022-10-18T10:05:15.337Z,99528.94
2022-10-18T10:07:31.151Z,99544.53
2022-10-18T10:09:57.622Z,99535.34
2022-10-18T10:11:59.487Z,99526.72
2022-10-18T10:16:25.883Z,99533.91
2022-10-18T10:18:36.414Z,99535.06
2022-10-18T10:20:52.087Z,99529.16
2022-10-18T10:22:53.974Z,99533.63
2022-10-18T10:24:55.862Z,99534.72
2022-10-18T10:27:04.084Z,99526.06
2022-10-18T10:29:45.082Z,99525.88
2022-10-18T10:32:02.164Z,99521.44
2022-10-18T10:34:12.755Z,99536.78
2022-10-18T10:36:21.099Z,99535.16
2022-10-18T10:38:27.608Z,99530.41
2022-10-18T10:40:30.561Z,99528.78
2022-10-18T10:42:33.384Z,99524.31
2022-10-18T10:44:36.820Z,99526.59
2022-10-18T10:46:44.694Z,99523.00
2022-10-18T10:49:03.268Z,99526.59
2022-10-18T10:51:19.008Z,99531.03
2022-10-18T10:53:35.475Z,99524.13
2022-10-18T10:55:37.620Z,99520.72
2022-10-18T10:57:49.255Z,99527.09
2022-10-18T10:59:55.403Z,99530.41
2022-10-18T11:02:26.206Z,99533.19
2022-10-18T11:04:41.161Z,99529.78
2022-10-18T11:07:05.459Z,99528.94
2022-10-18T11:09:28.642Z,99532.88
2022-10-18T11:11:39.392Z,99530.94
2022-10-18T11:13:53.335Z,99532.06
2022-10-18T11:16:15.210Z,99529.88
2022-10-18T11:18:21.630Z,99525.16
2022-10-18T11:20:26.735Z,99527.09
2022-10-18T11:22:38.477Z,99523.81
2022-10-18T11:24:40.181Z,99528.25
2022-10-18T11:27:03.653Z,99518.56
2022-10-18T11:29:36.028Z,99514.13
2022-10-18T11:31:42.373Z,99506.91
2022-10-18T11:34:10.456Z,99508.06
2022-10-18T11:38:39.685Z,99506.41
2022-10-18T11:41:18.608Z,99507.84
2022-10-18T11:44:02.256Z,99502.28
2022-10-18T11:46:15.747Z,99505.56
2022-10-18T11:48:45.332Z,99502.78
2022-10-18T11:50:58.510Z,99511.69
2022-10-18T11:53:16.928Z,99510.22
2022-10-18T11:55:41.089Z,99505.47
2022-10-18T11:58:00.499Z,99504.84
2022-10-18T12:00:21.022Z,99507.34
2022-10-18T12:02:37.876Z,99514.25
2022-10-18T12:05:22.598Z,99504.75
2022-10-18T12:07:35.290Z,99503.63
2022-10-18T12:09:43.355Z,99503.63
2022-10-18T12:11:55.704Z,99510.03
2022-10-18T12:14:02.389Z,99510.03
2022-10-18T12:16:07.030Z,99509.19
2022-10-18T12:18:16.352Z,99514.75
2022-10-18T12:20:39.794Z,99507.53
2022-10-18T12:23:01.659Z,99511.16
2022-10-18T12:25:04.283Z,99505.56
2022-10-18T12:27:09.111Z,99513.09
2022-10-18T12:29:29.853Z,99513.94
2022-10-18T12:31:35.140Z,99514.75
2022-10-18T12:33:42.186Z,99512.47
2022-10-18T12:35:57.351Z,99503.00
2022-10-18T12:38:17.761Z,99505.97
2022-10-18T12:40:41.205Z,99505.38
2022-10-18T12:42:49.575Z,99503.91
2022-10-18T12:45:05.479Z,99501.97
2022-10-18T12:47:07.018Z,99512.47
2022-10-18T12:49:17.165Z,99514.13
2022-10-18T12:51:23.107Z,99511.53
2022-10-18T12:53:27.843Z,99517.63
2022-10-18T12:55:40.023Z,99515.34
2022-10-18T12:57:54.004Z,99514.22
2022-10-18T12:59:55.537Z,99514.72
2022-10-18T13:01:57.244Z,99510.81
2022-10-18T13:03:59.053Z,99515.22
2022-10-18T13:06:04.290Z,99516.09
2022-10-18T13:08:34.041Z,99514.97
2022-10-18T13:10:37.983Z,99507.44
2022-10-18T13:12:59.839Z,99513.81
2022-10-18T13:15:24.309Z,99507.97
2022-10-18T13:17:36.216Z,99508.78
2022-10-18T13:20:24.454Z,99510.75
2022-10-18T13:23:02.575Z,99512.69
2022-10-18T13:25:17.421Z,99516.31
2022-10-18T13:27:35.516Z,99515.16
2022-10-18T13:29:47.606Z,99516.31
2022-10-18T13:31:58.642Z,99516.31
2022-10-18T13:34:25.338Z,99527.72
2022-10-18T13:36:32.418Z,99530.53
2022-10-18T13:38:40.061Z,99528.56
2022-10-18T13:40:41.701Z,99534.44
2022-10-18T13:42:43.310Z,99528.56
2022-10-18T13:44:46.623Z,99534.63
2022-10-18T13:46:48.145Z,99534.34
2022-10-18T13:49:09.254Z,99538.47
2022-10-18T13:51:29.421Z,99543.69
2022-10-18T13:53:57.132Z,99542.38
2022-10-18T13:56:17.372Z,99545.66
2022-10-18T13:59:13.101Z,99538.66
2022-10-18T14:01:36.589Z,99543.91
2022-10-18T14:04:08.058Z,99545.03
2022-10-18T14:06:19.321Z,99542.25
2022-10-18T14:11:01.434Z,99540.31
2022-10-18T14:13:07.270Z,99543.91
2022-10-18T14:15:25.832Z,99548.16
2022-10-18T14:17:42.650Z,99553.72
2022-10-18T14:19:52.249Z,99547.66
2022-10-18T14:22:18.203Z,99545.47
2022-10-18T14:24:29.895Z,99547.94
2022-10-18T14:26:32.943Z,99537.13
2022-10-18T14:28:54.985Z,99543.00
2022-10-18T14:31:09.345Z,99553.59
2022-10-18T14:33:25.123Z,99545.59
2022-10-18T14:35:39.631Z,99538.88
2022-10-18T14:37:54.308Z,99542.25
2022-10-18T14:39:56.521Z,99530.00
2022-10-18T14:41:58.957Z,99535.56
2022-10-18T14:44:19.491Z,99535.88
2022-10-18T14:46:29.034Z,99527.53
2022-10-18T14:48:37.711Z,99530.31
2022-10-18T14:50:39.477Z,99525.84
2022-10-18T14:52:41.142Z,99533.09
2022-10-18T14:54:43.088Z,99535.03
2022-10-18T14:56:48.456Z,99529.78
2022-10-18T14:58:52.239Z,99528.97
2022-10-18T15:00:56.558Z,99527.00
2022-10-18T15:02:58.594Z,99527.31
2022-10-18T15:05:05.836Z,99528.75
2022-10-18T15:07:15.792Z,99535.47
2022-10-18T15:09:22.105Z,99536.38
2022-10-18T15:11:25.300Z,99535.56
2022-10-18T15:13:36.463Z,99533.41
2022-10-18T15:15:43.766Z,99536.81
2022-10-18T15:17:46.553Z,99529.56
2022-10-18T15:20:18.364Z,99532.19
2022-10-18T15:22:32.371Z,99535.56
2022-10-18T15:24:37.488Z,99538.13
2022-10-18T15:26:45.122Z,99540.72
2022-10-18T15:28:54.034Z,99541.13
2022-10-18T15:30:59.106Z,99542.56
2022-10-18T15:33:03.055Z,99545.66
2022-10-18T15:35:16.944Z,99547.94
2022-10-18T15:37:30.720Z,99541.81
2022-10-18T15:39:32.587Z,99545.75
2022-10-18T15:41:41.753Z,99552.44
2022-10-18T15:43:43.503Z,99550.81
2022-10-18T15:45:48.790Z,99549.97
2022-10-18T15:48:13.064Z,99548.13
2022-10-18T15:50:42.251Z,99548.72
2022-10-18T15:52:43.956Z,99538.44
2022-10-18T15:54:45.818Z,99541.22
2022-10-18T15:56:47.478Z,99543.16
2022-10-18T15:58:51.233Z,99543.16
2022-10-18T16:00:57.730Z,99537.91
2022-10-18T16:02:59.304Z,99535.44
2022-10-18T16:05:03.646Z,99531.00
2022-10-18T16:07:05.179Z,99541.59
2022-10-18T16:09:06.825Z,99542.75
2022-10-18T16:11:19.370Z,99548.09
2022-10-18T16:13:21.033Z,99551.97
2022-10-18T16:15:22.701Z,99560.63
2022-10-18T16:17:24.218Z,99558.97
2022-10-18T16:19:26.111Z,99562.88
2022-10-18T16:21:33.268Z,99558.44
2022-10-18T16:23:34.919Z,99556.25
2022-10-18T16:25:36.729Z,99560.47
2022-10-18T16:27:38.254Z,99557.78
2022-10-18T16:29:41.570Z,99562.84
2022-10-18T16:31:43.266Z,99563.16
2022-10-18T16:33:49.029Z,99574.03
2022-10-18T16:35:51.782Z,99579.91
2022-10-18T16:37:53.509Z,99584.41
2022-10-18T16:39:55.302Z,99583.88
2022-10-18T16:41:59.853Z,99592.03
2022-10-18T16:44:04.674Z,99583.97
2022-10-18T16:46:07.657Z,99592.91
2022-10-18T16:48:14.244Z,99588.50
2022-10-18T16:50:18.966Z,99596.59
2022-10-18T16:52:23.475Z,99597.75
2022-10-18T16:54:25.094Z,99603.56
2022-10-18T16:56:31.608Z,99606.16
2022-10-18T16:58:33.679Z,99612.31
2022-10-18T17:00:40.258Z,99610.63
2022-10-18T17:02:41.912Z,99614.56
2022-10-18T17:04:43.716Z,99622.66
2022-10-18T17:06:46.196Z,99622.97
2022-10-18T17:08:48.404Z,99628.81
2022-10-18T17:10:52.972Z,99628.28
2022-10-18T17:12:54.837Z,99634.44
2022-10-18T17:14:56.590Z,99625.59
2022-10-18T17:16:58.264Z,99633.69
2022-10-18T17:19:02.876Z,99639.53
2022-10-18T17:21:04.891Z,99634.56
2022-10-18T17:23:06.741Z,99635.69
2022-10-18T17:25:08.879Z,99640.16
2022-10-18T17:27:11.444Z,99648.81
2022-10-18T17:29:13.518Z,99639.13
2022-10-18T17:31:15.394Z,99641.66
2022-10-18T17:33:16.990Z,99644.75
2022-10-18T17:35:18.980Z,99641.41
2022-10-18T17:37:21.824Z,99643.66
2022-10-18T17:39:23.379Z,99647.88
2022-10-18T17:41:25.581Z,99644.56
2022-10-18T17:43:27.306Z,99639.31
2022-10-18T17:45:31.741Z,99639.91
2022-10-18T17:47:33.604Z,99644.09
2022-10-18T17:49:35.482Z,99641.91
2022-10-18T17:51:37.162Z,99637.78
2022-10-18T17:53:39.659Z,99636.75
2022-10-18T17:55:41.319Z,99640.63
2022-10-18T17:57:43.708Z,99638.44
2022-10-18T17:59:47.729Z,99643.47
2022-10-18T18:01:49.448Z,99648.75
2022-10-18T18:03:56.875Z,99643.84
2022-10-18T18:05:58.597Z,99644.41
2022-10-18T18:08:03.928Z,99641.38
2022-10-18T18:10:06.668Z,99641.44
2022-10-18T18:12:08.359Z,99651.19
2022-10-18T18:14:11.476Z,99650.66
2022-10-18T18:16:21.789Z,99655.16
2022-10-18T18:18:26.651Z,99649.34
2022-10-18T18:20:28.546Z,99648.00
2022-10-18T18:22:30.466Z,99648.88
2022-10-18T18:24:32.372Z,99639.44
2022-10-18T18:26:35.974Z,99645.59
2022-10-18T18:28:38.102Z,99638.97
2022-10-18T18:30:39.975Z,99648.16
2022-10-18T18:32:41.546Z,99656.22
2022-10-18T18:34:43.075Z,99656.84
2022-10-18T18:36:44.900Z,99652.69
2022-10-18T18:38:47.409Z,99644.97
2022-10-18T18:40:49.308Z,99646.63
2022-10-18T18:43:19.049Z,99650.03
2022-10-18T18:45:13.360Z,99650.88
2022-10-18T18:47:15.708Z,99645.94
2022-10-18T18:49:17.318Z,99646.50
2022-10-18T18:51:21.091Z,99648.72
2022-10-18T18:53:25.846Z,99648.47
2022-10-18T18:55:28.856Z,99649.88
2022-10-18T18:57:30.713Z,99652.13
2022-10-18T18:59:32.557Z,99655.47
2022-10-18T19:01:37.564Z,99656.03
2022-10-18T19:03:40.272Z,99659.38
2022-10-18T19:05:43.073Z,99650.00
2022-10-18T19:07:44.699Z,99661.34
2022-10-18T19:09:47.045Z,99657.22
2022-10-18T19:11:53.566Z,99658.63
2022-10-18T19:13:57.871Z,99659.22
2022-10-18T19:16:26.884Z,99655.66
2022-10-18T19:18:28.410Z,99656.19
2022-10-18T19:20:30.106Z,99664.22
2022-10-18T19:22:31.765Z,99661.22
2022-10-18T19:24:36.762Z,99666.22
2022-10-18T19:26:45.403Z,99658.50
2022-10-18T19:28:47.620Z,99668.47
2022-10-18T19:30:50.736Z,99657.16
2022-10-18T19:32:59.818Z,99664.09
2022-10-18T19:35:05.326Z,99664.94
2022-10-18T19:37:09.660Z,99663.56
2022-10-18T19:39:19.804Z,99657.47
2022-10-18T19:41:21.660Z,99656.09
2022-10-18T19:43:23.414Z,99656.69
2022-10-18T19:45:25.581Z,99660.56
2022-10-18T19:47:27.304Z,99668.31
2022-10-18T19:49:29.000Z,99659.50
2022-10-18T19:51:30.794Z,99668.06
2022-10-18T19:53:32.947Z,99660.31
2022-10-18T19:55:59.924Z,99663.69
2022-10-18T19:58:01.709Z,99668.09
2022-10-18T20:00:09.823Z,99670.34
2022-10-18T20:02:15.770Z,99674.19
2022-10-18T20:04:17.767Z,99677.25
2022-10-18T20:06:19.523Z,99679.19
2022-10-18T20:08:21.608Z,99677.81
2022-10-18T20:10:23.548Z,99674.22
2022-10-18T20:12:25.330Z,99675.06
2022-10-18T20:14:29.190Z,99682.28
2022-10-18T20:16:32.962Z,99680.59
2022-10-18T20:18:35.232Z,99680.06
2022-10-18T20:20:37.228Z,99677.59
2022-10-18T20:22:38.806Z,99684.22
2022-10-18T20:24:40.413Z,99688.38
2022-10-18T20:26:43.916Z,99686.72
2022-10-18T20:28:47.984Z,99696.13
2022-10-18T20:31:02.258Z,99685.34
2022-10-18T20:33:04.887Z,99686.47
2022-10-18T20:35:06.907Z,99690.06
2022-10-18T20:37:08.818Z,99689.50
2022-10-18T20:39:10.370Z,99687.56
2022-10-18T20:41:15.442Z,99680.38
2022-10-18T20:43:18.107Z,99672.34
2022-10-18T20:45:20.024Z,99683.41
2022-10-18T20:47:21.821Z,99676.47
2022-10-18T20:49:24.700Z,99682.00
2022-10-18T20:51:26.379Z,99677.59
2022-10-18T20:53:28.010Z,99676.19
2022-10-18T20:55:29.676Z,99682.03
2022-10-18T20:57:34.172Z,99674.81
2022-10-18T20:59:38.425Z,99677.06
2022-10-18T21:01:40.584Z,99673.44
2022-10-18T21:03:45.041Z,99676.81
2022-10-18T21:05:46.787Z,99683.41
2022-10-18T21:07:48.359Z,99675.69
2022-10-18T21:09:49.990Z,99678.75
2022-10-18T21:11:53.915Z,99686.50
2022-10-18T21:13:59.680Z,99691.44
2022-10-18T21:16:02.089Z,99684.53
2022-10-18T21:18:03.671Z,99680.97
2022-10-18T21:20:09.151Z,99682.34
2022-10-18T21:22:10.806Z,99675.44
2022-10-18T21:24:13.662Z,99674.88
2022-10-18T21:26:20.970Z,99671.03
2022-10-18T21:28:23.692Z,99669.38
2022-10-18T21:30:25.187Z,99673.81
2022-10-18T21:32:26.747Z,99673.53
2022-10-18T21:34:28.388Z,99674.91
2022-10-18T21:36:31.969Z,99667.75
2022-10-18T21:38:34.044Z,99668.28
2022-10-18T21:40:36.513Z,99676.88
2022-10-18T21:42:38.114Z,99670.22
2022-10-18T21:44:39.836Z,99673.28
2022-10-18T21:46:43.162Z,99674.66
2022-10-18T21:48:46.697Z,99676.88
2022-10-18T21:50:48.490Z,99671.59
2022-10-18T21:52:50.068Z,99667.75
2022-10-18T21:54:52.987Z,99671.59
2022-10-18T21:56:54.964Z,99669.13
2022-10-18T21:58:57.547Z,99673.81
2022-10-18T22:00:59.504Z,99668.59
2022-10-18T22:03:14.662Z,99667.22
2022-10-18T22:05:16.369Z,99669.13
2022-10-18T22:07:18.000Z,99668.59
2022-10-18T22:09:21.257Z,99668.59
2022-10-18T22:11:30.104Z,99665.25
2022-10-18T22:13:32.015Z,99662.50
2022-10-18T22:15:33.625Z,99665.53
2022-10-18T22:17:35.894Z,99662.78
2022-10-18T22:19:38.155Z,99660.84
2022-10-18T22:21:39.869Z,99661.94
2022-10-18T22:23:44.278Z,99659.19
2022-10-18T22:25:45.933Z,99652.81
2022-10-18T22:27:47.679Z,99666.38
2022-10-18T22:29:49.176Z,99660.31
2022-10-18T22:31:53.650Z,99669.97
2022-10-18T22:33:57.915Z,99669.97
2022-10-18T22:35:59.513Z,99665.25
2022-10-18T22:38:01.254Z,99659.72
2022-10-18T22:40:03.132Z,99659.72
2022-10-18T22:42:06.260Z,99664.44
2022-10-18T22:44:08.699Z,99659.19
2022-10-18T22:46:15.276Z,99654.50
2022-10-18T22:48:16.834Z,99649.25
2022-10-18T22:50:21.469Z,99660.31
2022-10-18T22:52:23.209Z,99651.44
2022-10-18T22:54:24.812Z,99644.81
2022-10-18T22:56:26.538Z,99648.41
2022-10-18T22:58:28.304Z,99647.59
2022-10-18T23:00:29.904Z,99651.19
2022-10-18T23:02:31.814Z,99645.91
2022-10-18T23:04:33.762Z,99647.59
2022-10-18T23:06:36.410Z,99647.59
2022-10-18T23:08:38.009Z,99646.50
2022-10-18T23:10:41.247Z,99649.50
2022-10-18T23:12:43.096Z,99640.13
2022-10-18T23:14:44.834Z,99644.53
2022-10-18T23:16:46.669Z,99642.91
2022-10-18T23:18:53.998Z,99638.22
2022-10-18T23:21:09.946Z,99648.41
2022-10-18T23:23:12.582Z,99652.28
2022-10-18T23:25:14.320Z,99652.28
2022-10-18T23:27:16.318Z,99655.03
2022-10-18T23:29:17.913Z,99652.28
2022-10-18T23:31:23.419Z,99655.03
2022-10-18T23:33:25.073Z,99654.50
2022-10-18T23:35:26.636Z,99656.16
2022-10-18T23:37:28.292Z,99661.69
2022-10-18T23:39:29.908Z,99660.84
2022-10-18T23:41:32.181Z,99658.09
2022-10-18T23:43:34.413Z,99663.59
2022-10-18T23:45:35.929Z,99663.88
2022-10-18T23:47:40.066Z,99664.69
2022-10-18T23:49:42.163Z,99668.28
2022-10-18T23:51:43.912Z,99662.78
2022-10-18T23:53:46.246Z,99665.53
2022-10-18T23:55:54.810Z,99653.66
2022-10-18T23:57:56.617Z,99659.72
2022-10-18T23:59:58.102Z,99650.91
